createdAt,value
2022-12-08T00:01:06.685Z,88.40
2022-12-08T00:03:33.739Z,88.06
2022-12-08T00:06:21.577Z,87.31
2022-12-08T00:09:07.116Z,87.26
2022-12-08T00:11:34.076Z,88.19
2022-12-08T00:14:01.013Z,88.89
2022-12-08T00:16:27.530Z,88.52
2022-12-08T00:18:54.214Z,87.43
2022-12-08T00:21:20.681Z,87.96
2022-12-08T00:23:47.138Z,87.88
2022-12-08T00:26:13.629Z,88.99
2022-12-08T00:28:40.118Z,89.05
2022-12-08T00:31:11.778Z,89.06
2022-12-08T00:33:38.372Z,89.17
2022-12-08T00:36:09.349Z,89.11
2022-12-08T00:38:36.388Z,89.45
2022-12-08T00:41:04.090Z,89.77
2022-12-08T00:43:30.565Z,90.03
2022-12-08T00:45:57.149Z,90.50
2022-12-08T00:48:23.687Z,91.48
2022-12-08T00:50:50.114Z,92.28
2022-12-08T00:53:16.588Z,91.91
2022-12-08T00:55:43.648Z,90.85
2022-12-08T00:58:10.106Z,89.84
2022-12-08T01:00:36.546Z,88.59
2022-12-08T01:03:03.132Z,89.24
2022-12-08T01:05:29.685Z,91.25
2022-12-08T01:07:56.176Z,91.60
2022-12-08T01:10:22.834Z,91.08
2022-12-08T01:12:49.324Z,90.51
2022-12-08T01:15:15.797Z,90.94
2022-12-08T01:17:42.313Z,90.16
2022-12-08T01:20:09.270Z,90.48
2022-12-08T01:22:38.376Z,89.74
2022-12-08T01:25:05.205Z,88.74
2022-12-08T01:27:31.722Z,88.06
2022-12-08T01:29:58.171Z,88.70
2022-12-08T01:32:24.632Z,88.93
2022-12-08T01:34:51.058Z,88.68
2022-12-08T01:37:17.730Z,89.01
2022-12-08T01:39:44.328Z,88.61
2022-12-08T01:42:23.433Z,89.09
2022-12-08T01:44:55.045Z,89.48
2022-12-08T01:47:24.245Z,90.00
2022-12-08T01:49:51.024Z,91.15
2022-12-08T01:52:37.337Z,92.15
2022-12-08T01:55:39.461Z,91.67
2022-12-08T01:58:13.700Z,92.36
2022-12-08T02:00:40.169Z,91.93
2022-12-08T02:03:13.285Z,91.73
2022-12-08T02:05:40.442Z,91.67
2022-12-08T02:08:10.945Z,91.58
2022-12-08T02:10:41.445Z,91.89
2022-12-08T02:13:12.354Z,91.65
2022-12-08T02:15:42.906Z,91.95
2022-12-08T02:18:57.706Z,92.93
2022-12-08T02:21:55.550Z,93.24
2022-12-08T02:24:39.642Z,93.72
2022-12-08T02:27:27.935Z,94.29
2022-12-08T02:30:13.212Z,93.81
2022-12-08T02:33:05.809Z,93.17
2022-12-08T02:35:39.892Z,92.82
2022-12-08T02:38:32.214Z,92.72
2022-12-08T02:41:35.746Z,93.24
2022-12-08T02:44:33.154Z,92.91
2022-12-08T02:47:06.919Z,92.33
2022-12-08T02:49:35.134Z,92.48
2022-12-08T02:52:05.539Z,94.18
2022-12-08T02:54:33.296Z,94.34
2022-12-08T02:57:32.900Z,93.37
2022-12-08T03:00:09.131Z,92.92
2022-12-08T03:03:25.066Z,93.61
2022-12-08T03:06:09.852Z,94.57
2022-12-08T03:08:46.330Z,93.77
2022-12-08T03:11:22.590Z,92.72
2022-12-08T03:13:52.912Z,93.39
2022-12-08T03:16:24.428Z,93.28
2022-12-08T03:19:06.055Z,93.68
2022-12-08T03:21:35.351Z,94.63
2022-12-08T03:24:06.604Z,94.33
2022-12-08T03:26:46.459Z,94.00
2022-12-08T03:29:13.755Z,94.45
2022-12-08T03:31:48.686Z,94.61
2022-12-08T03:34:16.992Z,94.57
2022-12-08T03:36:44.774Z,94.28
2022-12-08T03:39:11.402Z,94.39
2022-12-08T03:41:37.892Z,94.42
2022-12-08T03:44:04.553Z,94.74
2022-12-08T03:48:57.370Z,94.25
2022-12-08T03:51:24.637Z,94.75
2022-12-08T03:53:51.393Z,94.40
2022-12-08T03:56:28.589Z,94.69
2022-12-08T03:58:55.824Z,94.75
2022-12-08T04:01:23.183Z,94.41
2022-12-08T04:03:49.895Z,94.70
2022-12-08T04:06:17.044Z,94.84
2022-12-08T04:08:43.893Z,95.71
2022-12-08T04:11:11.485Z,95.04
2022-12-08T04:13:39.534Z,94.66
2022-12-08T04:16:07.303Z,94.75
2022-12-08T04:18:35.198Z,96.13
2022-12-08T04:21:01.984Z,94.91
2022-12-08T04:23:28.493Z,94.80
2022-12-08T04:25:54.942Z,95.75
2022-12-08T04:28:21.845Z,96.06
2022-12-08T04:30:49.278Z,94.83
2022-12-08T04:33:16.249Z,94.83
2022-12-08T04:35:42.957Z,96.70
2022-12-08T04:38:09.438Z,96.67
2022-12-08T04:40:35.874Z,96.78
2022-12-08T04:43:02.347Z,96.82
2022-12-08T04:45:28.815Z,97.51
2022-12-08T04:47:55.540Z,97.92
2022-12-08T04:50:22.201Z,97.72
2022-12-08T04:52:48.700Z,97.34
2022-12-08T04:55:15.213Z,97.52
2022-12-08T04:57:41.664Z,97.51
2022-12-08T05:00:08.795Z,97.57
2022-12-08T05:02:35.512Z,98.25
2022-12-08T05:05:02.067Z,97.72
2022-12-08T05:07:28.519Z,97.24
2022-12-08T05:09:55.048Z,97.75
2022-12-08T05:12:21.675Z,97.06
2022-12-08T05:14:48.436Z,97.35
2022-12-08T05:17:15.929Z,96.88
2022-12-08T05:19:42.622Z,97.71
2022-12-08T05:22:09.325Z,96.85
2022-12-08T05:24:35.856Z,97.32
2022-12-08T05:27:02.530Z,97.61
2022-12-08T05:29:28.946Z,97.73
2022-12-08T05:31:55.581Z,97.39
2022-12-08T05:34:22.162Z,96.85
2022-12-08T05:36:48.643Z,97.54
2022-12-08T05:39:15.889Z,96.05
2022-12-08T05:41:42.380Z,95.67
2022-12-08T05:44:09.107Z,96.37
2022-12-08T05:46:36.460Z,96.25
2022-12-08T05:49:04.171Z,97.16
2022-12-08T05:51:30.785Z,96.88
2022-12-08T05:53:57.999Z,95.97
2022-12-08T05:56:24.741Z,96.27
2022-12-08T05:58:51.283Z,97.03
2022-12-08T06:01:22.781Z,97.83
2022-12-08T06:03:49.312Z,97.84
2022-12-08T06:06:15.933Z,98.11
2022-12-08T06:08:42.388Z,98.11
2022-12-08T06:11:09.447Z,97.79
2022-12-08T06:13:36.029Z,97.52
2022-12-08T06:16:06.893Z,97.08
2022-12-08T06:18:33.445Z,97.03
2022-12-08T06:21:08.115Z,96.31
2022-12-08T06:23:35.206Z,96.45
2022-12-08T06:26:07.777Z,97.32
2022-12-08T06:28:35.546Z,96.23
2022-12-08T06:31:09.820Z,97.00
2022-12-08T06:33:36.861Z,96.97
2022-12-08T06:36:04.650Z,96.20
2022-12-08T06:38:31.145Z,96.42
2022-12-08T06:40:59.304Z,96.04
2022-12-08T06:43:26.467Z,96.55
2022-12-08T06:45:53.444Z,96.72
2022-12-08T06:48:20.165Z,96.31
2022-12-08T06:50:46.669Z,95.68
2022-12-08T06:53:14.882Z,100.00
2022-12-08T06:56:00.233Z,94.70
2022-12-08T06:58:26.803Z,94.69
2022-12-08T07:00:53.723Z,94.67
2022-12-08T07:03:20.587Z,95.17
2022-12-08T07:05:47.265Z,95.57
2022-12-08T07:08:13.938Z,94.55
2022-12-08T07:10:40.661Z,95.03
2022-12-08T07:13:07.198Z,95.04
2022-12-08T07:15:33.664Z,95.64
2022-12-08T07:18:00.618Z,100.00
2022-12-08T07:20:27.639Z,98.48
2022-12-08T07:22:54.651Z,95.00
2022-12-08T07:25:21.187Z,94.48
2022-12-08T07:27:48.095Z,94.77
2022-12-08T07:30:15.101Z,94.76
2022-12-08T07:32:41.612Z,94.08
2022-12-08T07:35:10.804Z,94.86
2022-12-08T07:37:38.232Z,94.32
2022-12-08T07:40:07.095Z,94.46
2022-12-08T07:42:34.122Z,94.46
2022-12-08T07:45:00.851Z,95.28
2022-12-08T07:47:27.375Z,95.19
2022-12-08T07:49:53.900Z,95.32
2022-12-08T07:52:20.425Z,95.91
2022-12-08T07:54:47.380Z,94.52
2022-12-08T07:57:13.979Z,94.85
2022-12-08T07:59:40.489Z,96.35
2022-12-08T08:02:24.268Z,96.60
2022-12-08T08:04:51.839Z,96.09
2022-12-08T08:07:18.313Z,95.51
2022-12-08T08:09:45.725Z,95.07
2022-12-08T08:12:30.745Z,93.07
2022-12-08T08:14:58.347Z,92.39
2022-12-08T08:17:24.976Z,94.73
2022-12-08T08:19:51.558Z,94.78
2022-12-08T08:22:18.000Z,93.28
2022-12-08T08:24:45.352Z,94.63
2022-12-08T08:27:12.545Z,93.31
2022-12-08T08:29:39.017Z,93.99
2022-12-08T08:32:05.881Z,93.85
2022-12-08T08:34:32.418Z,91.67
2022-12-08T08:36:58.929Z,92.14
2022-12-08T08:39:26.508Z,92.93
2022-12-08T08:41:53.030Z,93.22
2022-12-08T08:44:19.526Z,91.66
2022-12-08T08:46:46.049Z,91.86
2022-12-08T08:49:12.842Z,91.78
2022-12-08T08:51:39.389Z,91.60
2022-12-08T08:54:05.863Z,91.91
2022-12-08T08:56:32.706Z,91.84
2022-12-08T08:58:59.237Z,92.51
2022-12-08T09:01:28.159Z,90.29
2022-12-08T09:03:57.564Z,90.39
2022-12-08T09:06:25.349Z,90.61
2022-12-08T09:08:52.103Z,88.99
2022-12-08T09:11:18.744Z,88.12
2022-12-08T09:13:48.345Z,87.56
2022-12-08T09:16:15.497Z,87.47
2022-12-08T09:18:42.108Z,88.62
2022-12-08T09:21:13.179Z,87.57
2022-12-08T09:23:40.017Z,87.44
2022-12-08T09:26:06.971Z,90.13
2022-12-08T09:28:33.712Z,88.26
2022-12-08T09:31:00.870Z,88.96
2022-12-08T09:33:27.655Z,87.95
2022-12-08T09:35:54.165Z,86.86
2022-12-08T09:38:20.619Z,86.46
2022-12-08T09:40:53.100Z,85.91
2022-12-08T09:43:38.569Z,85.68
2022-12-08T09:46:09.459Z,83.83
2022-12-08T09:48:41.510Z,83.51
2022-12-08T09:51:09.294Z,83.92
2022-12-08T09:53:56.325Z,81.82
2022-12-08T09:56:26.448Z,82.47
2022-12-08T09:58:55.375Z,82.57
2022-12-08T10:01:23.907Z,80.86
2022-12-08T10:03:50.652Z,80.12
2022-12-08T10:06:41.276Z,81.09
2022-12-08T10:09:22.687Z,79.21
2022-12-08T10:11:57.527Z,78.98
2022-12-08T10:15:02.348Z,79.74
2022-12-08T10:17:34.603Z,77.12
2022-12-08T10:20:21.407Z,78.80
2022-12-08T10:22:58.484Z,78.53
2022-12-08T10:25:33.176Z,78.32
2022-12-08T10:27:59.614Z,78.86
2022-12-08T10:30:26.255Z,76.75
2022-12-08T10:32:54.626Z,77.20
2022-12-08T10:35:22.870Z,73.91
2022-12-08T10:38:03.985Z,71.81
2022-12-08T10:40:42.120Z,70.59
2022-12-08T10:43:22.003Z,71.66
2022-12-08T10:45:48.991Z,71.45
2022-12-08T10:48:22.628Z,72.14
2022-12-08T10:50:59.901Z,71.97
2022-12-08T10:53:33.763Z,71.32
2022-12-08T10:56:03.071Z,73.13
2022-12-08T10:58:48.437Z,73.32
2022-12-08T11:01:18.533Z,72.85
2022-12-08T11:03:47.736Z,72.16
2022-12-08T11:06:19.977Z,72.02
2022-12-08T11:08:54.143Z,72.72
2022-12-08T11:11:27.683Z,72.47
2022-12-08T11:13:55.947Z,71.72
2022-12-08T11:16:23.518Z,69.59
2022-12-08T11:18:57.098Z,65.83
2022-12-08T11:21:31.131Z,63.73
2022-12-08T11:23:57.465Z,61.42
2022-12-08T11:26:30.126Z,59.95
2022-12-08T11:28:57.152Z,59.39
2022-12-08T11:31:41.253Z,60.66
2022-12-08T11:34:15.586Z,60.05
2022-12-08T11:36:42.173Z,59.83
2022-12-08T11:39:12.492Z,60.06
2022-12-08T11:41:44.190Z,60.02
2022-12-08T11:45:12.096Z,60.58
2022-12-08T11:47:52.612Z,60.93
2022-12-08T11:50:28.373Z,61.14
2022-12-08T11:52:56.995Z,60.36
2022-12-08T11:55:40.704Z,59.55
2022-12-08T11:58:12.070Z,60.06
2022-12-08T12:00:38.492Z,60.27
2022-12-08T12:03:19.038Z,59.45
2022-12-08T12:09:34.155Z,58.24
2022-12-08T12:12:40.042Z,60.13
2022-12-08T12:15:44.918Z,59.53
2022-12-08T12:18:31.556Z,58.53
2022-12-08T12:21:22.728Z,60.59
2022-12-08T12:23:56.848Z,60.30
2022-12-08T12:26:29.527Z,60.38
2022-12-08T12:29:06.616Z,59.72
2022-12-08T12:31:41.578Z,60.18
2022-12-08T12:34:22.527Z,60.63
2022-12-08T12:36:50.789Z,61.09
2022-12-08T12:39:21.634Z,61.27
2022-12-08T12:41:57.478Z,62.50
2022-12-08T12:44:45.859Z,64.79
2022-12-08T12:47:14.721Z,65.72
2022-12-08T12:49:43.567Z,67.91
2022-12-08T12:52:09.937Z,65.82
2022-12-08T12:54:36.457Z,66.00
2022-12-08T12:57:08.970Z,64.38
2022-12-08T12:59:55.294Z,65.00
2022-12-08T13:02:25.107Z,64.29
2022-12-08T13:05:00.656Z,66.52
2022-12-08T13:07:34.251Z,66.47
2022-12-08T13:10:18.062Z,67.30
2022-12-08T13:12:45.660Z,66.75
2022-12-08T13:15:20.302Z,64.83
2022-12-08T13:17:49.033Z,65.33
2022-12-08T13:20:24.433Z,65.10
2022-12-08T13:22:53.624Z,66.21
2022-12-08T13:25:38.877Z,65.14
2022-12-08T13:28:27.381Z,67.39
2022-12-08T13:31:03.890Z,69.96
2022-12-08T13:33:31.767Z,69.62
2022-12-08T13:36:07.047Z,70.33
2022-12-08T13:38:36.773Z,71.87
2022-12-08T13:41:08.040Z,72.80
2022-12-08T13:44:10.209Z,74.14
2022-12-08T13:47:25.106Z,74.91
2022-12-08T13:56:59.412Z,76.96
2022-12-08T13:58:36.340Z,77.74
2022-12-08T14:01:02.843Z,79.32
2022-12-08T14:03:29.548Z,79.68
2022-12-08T14:06:12.322Z,80.33
2022-12-08T14:11:50.213Z,80.87
2022-12-08T14:14:46.035Z,83.02
2022-12-08T14:17:15.173Z,83.74
2022-12-08T14:19:53.687Z,83.07
2022-12-08T14:22:20.115Z,84.21
2022-12-08T14:24:51.225Z,85.25
2022-12-08T14:27:21.459Z,85.39
2022-12-08T14:30:00.111Z,85.10
2022-12-08T14:32:44.473Z,85.99
2022-12-08T14:35:10.875Z,86.42
2022-12-08T14:37:49.986Z,85.66
2022-12-08T14:40:36.174Z,87.25
2022-12-08T14:43:13.560Z,89.53
2022-12-08T14:45:43.780Z,90.99
2022-12-08T14:48:39.191Z,89.91
2022-12-08T14:51:14.548Z,89.90
2022-12-08T14:53:44.969Z,90.53
2022-12-08T14:56:20.569Z,89.67
2022-12-08T14:58:49.900Z,90.40
2022-12-08T15:01:23.368Z,89.92
2022-12-08T15:03:51.369Z,89.97
2022-12-08T15:06:21.001Z,90.42
2022-12-08T15:08:58.816Z,90.12
2022-12-08T15:11:34.600Z,91.67
2022-12-08T15:14:01.753Z,91.66
2022-12-08T15:16:30.429Z,90.88
2022-12-08T15:19:16.881Z,91.00
2022-12-08T15:21:44.795Z,91.99
2022-12-08T15:24:13.258Z,91.83
2022-12-08T15:26:43.971Z,92.05
2022-12-08T15:29:13.646Z,91.77
2022-12-08T15:31:40.218Z,92.05
2022-12-08T15:34:06.794Z,92.32
2022-12-08T15:36:33.298Z,91.58
2022-12-08T15:38:59.936Z,92.27
2022-12-08T15:41:26.412Z,91.31
2022-12-08T15:43:52.882Z,91.40
2022-12-08T15:46:19.328Z,92.60
2022-12-08T15:48:45.842Z,93.44
2022-12-08T15:51:12.261Z,92.87
2022-12-08T15:53:38.737Z,92.35
2022-12-08T15:58:55.622Z,92.60
2022-12-08T16:01:23.365Z,92.93
2022-12-08T16:09:39.035Z,94.60
2022-12-08T16:13:54.806Z,94.62
2022-12-08T16:16:01.125Z,94.65
2022-12-08T16:18:37.149Z,93.70
2022-12-08T16:21:12.382Z,93.37
2022-12-08T16:23:44.955Z,92.94
2022-12-08T16:26:28.396Z,95.55
2022-12-08T16:29:02.171Z,95.62
2022-12-08T16:31:28.965Z,97.28
2022-12-08T16:33:55.601Z,96.62
2022-12-08T16:36:22.027Z,97.66
2022-12-08T16:38:48.480Z,97.99
2022-12-08T16:41:35.230Z,97.95
2022-12-08T16:44:03.382Z,98.39
2022-12-08T16:46:29.926Z,98.95
2022-12-08T16:48:58.829Z,98.61
2022-12-08T16:51:27.372Z,99.24
2022-12-08T16:53:55.130Z,97.80
2022-12-08T16:56:26.244Z,98.37
2022-12-08T16:58:56.996Z,99.81
2022-12-08T17:01:24.813Z,100.00
2022-12-08T17:04:07.470Z,100.00
2022-12-08T17:06:37.864Z,100.00
2022-12-08T17:09:04.505Z,100.00
2022-12-08T17:11:36.186Z,100.00
2022-12-08T17:14:04.102Z,100.00
2022-12-08T17:16:30.585Z,100.00
2022-12-08T17:18:58.245Z,100.00
2022-12-08T17:21:24.753Z,100.00
2022-12-08T17:23:51.241Z,100.00
2022-12-08T17:26:17.780Z,100.00
2022-12-08T17:29:00.078Z,100.00
2022-12-08T17:31:29.976Z,100.00
2022-12-08T17:34:02.248Z,100.00
2022-12-08T17:36:29.018Z,100.00
2022-12-08T17:38:56.746Z,100.00
2022-12-08T17:41:23.216Z,100.00
2022-12-08T17:43:49.699Z,100.00
2022-12-08T17:46:20.618Z,100.00
2022-12-08T17:48:47.467Z,100.00
2022-12-08T17:51:15.129Z,100.00
2022-12-08T17:53:41.719Z,100.00
2022-12-08T17:56:21.154Z,100.00
2022-12-08T17:58:52.847Z,100.00
2022-12-08T18:01:21.647Z,100.00
2022-12-08T18:03:48.196Z,100.00
2022-12-08T18:06:14.738Z,100.00
2022-12-08T18:08:41.151Z,100.00
2022-12-08T18:11:16.599Z,100.00
2022-12-08T18:13:43.351Z,100.00
2022-12-08T18:16:10.289Z,100.00
2022-12-08T18:18:36.807Z,100.00
2022-12-08T18:21:04.056Z,100.00
2022-12-08T18:23:30.564Z,100.00
2022-12-08T18:25:57.084Z,100.00
2022-12-08T18:28:24.067Z,100.00
2022-12-08T18:30:50.778Z,100.00
2022-12-08T18:33:17.371Z,100.00
2022-12-08T18:35:43.849Z,100.00
2022-12-08T18:38:10.289Z,100.00
2022-12-08T18:40:36.819Z,100.00
2022-12-08T18:43:03.439Z,100.00
2022-12-08T18:45:29.892Z,100.00
2022-12-08T18:47:56.451Z,100.00
2022-12-08T18:50:23.021Z,100.00
2022-12-08T18:52:49.770Z,100.00
2022-12-08T18:55:16.255Z,100.00
2022-12-08T18:57:43.222Z,100.00
2022-12-08T19:00:13.456Z,100.00
2022-12-08T19:02:40.627Z,100.00
2022-12-08T19:05:09.291Z,100.00
2022-12-08T19:07:35.967Z,100.00
2022-12-08T19:10:02.830Z,100.00
2022-12-08T19:12:29.365Z,100.00
2022-12-08T19:14:56.615Z,100.00
2022-12-08T19:17:23.430Z,100.00
2022-12-08T19:19:49.941Z,100.00
2022-12-08T19:22:16.413Z,100.00
2022-12-08T19:24:42.946Z,100.00
2022-12-08T19:27:09.755Z,100.00
2022-12-08T19:29:36.366Z,100.00
2022-12-08T19:32:05.094Z,100.00
2022-12-08T19:34:31.648Z,100.00
2022-12-08T19:36:58.131Z,100.00
2022-12-08T19:39:43.045Z,100.00
2022-12-08T19:42:33.197Z,100.00
2022-12-08T19:45:07.521Z,100.00
2022-12-08T19:47:34.233Z,100.00
2022-12-08T19:50:19.453Z,100.00
2022-12-08T19:52:46.019Z,100.00
2022-12-08T19:55:13.373Z,100.00
2022-12-08T19:57:40.223Z,100.00
2022-12-08T20:00:08.969Z,100.00
2022-12-08T20:02:36.572Z,100.00
2022-12-08T20:05:05.585Z,100.00
2022-12-08T20:07:32.063Z,100.00
2022-12-08T20:09:58.557Z,100.00
2022-12-08T20:12:25.141Z,100.00
2022-12-08T20:14:52.703Z,100.00
2022-12-08T20:17:19.423Z,100.00
2022-12-08T20:19:46.109Z,100.00
2022-12-08T20:22:12.551Z,100.00
2022-12-08T20:24:39.063Z,100.00
2022-12-08T20:27:05.523Z,100.00
2022-12-08T20:29:32.140Z,100.00
2022-12-08T20:31:58.821Z,100.00
2022-12-08T20:34:25.540Z,100.00
2022-12-08T20:36:52.014Z,100.00
2022-12-08T20:39:18.736Z,100.00
2022-12-08T20:41:46.213Z,100.00
2022-12-08T20:44:12.735Z,100.00
2022-12-08T20:46:39.674Z,100.00
2022-12-08T20:49:07.706Z,100.00
2022-12-08T20:51:34.676Z,100.00
2022-12-08T20:54:01.534Z,100.00
2022-12-08T20:56:28.540Z,100.00
2022-12-08T20:58:56.019Z,100.00
2022-12-08T21:01:24.335Z,100.00
2022-12-08T21:03:51.642Z,100.00
2022-12-08T21:06:23.342Z,100.00
2022-12-08T21:08:50.754Z,100.00
2022-12-08T21:11:17.567Z,100.00
2022-12-08T21:13:44.601Z,100.00
2022-12-08T21:16:13.785Z,100.00
2022-12-08T21:18:41.589Z,100.00
2022-12-08T21:21:11.615Z,100.00
2022-12-08T21:23:38.407Z,100.00
2022-12-08T21:26:18.702Z,100.00
2022-12-08T21:28:45.620Z,100.00
2022-12-08T21:31:15.082Z,100.00
2022-12-08T21:33:42.168Z,100.00
2022-12-08T21:36:12.847Z,100.00
2022-12-08T21:38:40.848Z,100.00
2022-12-08T21:41:10.665Z,100.00
2022-12-08T21:43:37.284Z,100.00
2022-12-08T21:46:04.371Z,100.00
2022-12-08T21:48:30.878Z,100.00
2022-12-08T21:51:04.719Z,100.00
2022-12-08T21:53:31.395Z,100.00
2022-12-08T21:55:57.839Z,100.00
2022-12-08T21:58:24.464Z,100.00
2022-12-08T22:00:51.095Z,100.00
2022-12-08T22:03:17.889Z,100.00
2022-12-08T22:05:44.463Z,100.00
2022-12-08T22:08:11.129Z,100.00
2022-12-08T22:10:38.382Z,100.00
2022-12-08T22:13:04.970Z,100.00
2022-12-08T22:15:32.724Z,100.00
2022-12-08T22:17:59.334Z,100.00
2022-12-08T22:20:26.011Z,100.00
2022-12-08T22:22:52.699Z,100.00
2022-12-08T22:25:19.307Z,100.00
2022-12-08T22:27:46.012Z,100.00
2022-12-08T22:30:12.929Z,100.00
2022-12-08T22:32:40.128Z,100.00
2022-12-08T22:35:06.943Z,100.00
2022-12-08T22:37:33.700Z,100.00
2022-12-08T22:40:00.259Z,100.00
2022-12-08T22:42:27.669Z,100.00
2022-12-08T22:44:54.159Z,100.00
2022-12-08T22:47:20.727Z,100.00
2022-12-08T22:49:47.360Z,100.00
2022-12-08T22:52:14.082Z,99.62
2022-12-08T22:54:40.604Z,99.98
2022-12-08T22:57:07.035Z,100.00
2022-12-08T22:59:34.641Z,99.77
2022-12-08T23:02:01.234Z,100.00
2022-12-08T23:04:27.851Z,99.88
2022-12-08T23:06:54.720Z,100.00
2022-12-08T23:09:21.658Z,100.00
2022-12-08T23:11:48.453Z,100.00
2022-12-08T23:14:15.621Z,100.00
2022-12-08T23:16:42.175Z,100.00
2022-12-08T23:19:08.731Z,100.00
2022-12-08T23:21:35.188Z,100.00
2022-12-08T23:24:02.104Z,100.00
2022-12-08T23:26:31.663Z,100.00
2022-12-08T23:28:59.090Z,100.00
2022-12-08T23:31:26.738Z,99.81
2022-12-08T23:33:54.679Z,99.69
2022-12-08T23:36:22.609Z,99.56
2022-12-08T23:38:49.229Z,99.28
2022-12-08T23:41:16.161Z,99.22
2022-12-08T23:43:47.512Z,98.60
2022-12-08T23:46:15.747Z,99.25
2022-12-08T23:48:42.395Z,98.75
2022-12-08T23:51:09.430Z,99.67
2022-12-08T23:53:36.139Z,100.00
2022-12-08T23:56:05.874Z,100.00
2022-12-08T23:58:33.361Z,100.00
